createdAt,value
2023-05-20T00:01:50.484Z,102312.94
2023-05-20T00:04:17.470Z,102309.16
2023-05-20T00:06:44.406Z,102303.03
2023-05-20T00:09:11.430Z,102301.06
2023-05-20T00:11:40.351Z,102290.63
2023-05-20T00:14:07.243Z,102304.69
2023-05-20T00:16:34.361Z,102304.13
2023-05-20T00:19:01.419Z,102301.50
2023-05-20T00:21:28.572Z,102294.78
2023-05-20T00:23:56.636Z,102290.72
2023-05-20T00:26:23.603Z,102296.31
2023-05-20T00:28:50.470Z,102290.47
2023-05-20T00:31:17.443Z,102289.88
2023-05-20T00:33:44.499Z,102295.59
2023-05-20T00:36:11.499Z,102291.03
2023-05-20T00:38:38.408Z,102291.25
2023-05-20T00:41:05.396Z,102284.00
2023-05-20T00:43:32.318Z,102296.69
2023-05-20T00:45:59.343Z,102283.72
2023-05-20T00:48:26.698Z,102292.88
2023-05-20T00:50:53.809Z,102290.53
2023-05-20T00:53:21.762Z,102292.03
2023-05-20T00:55:49.300Z,102283.03
2023-05-20T00:58:16.438Z,102289.00
2023-05-20T01:00:43.502Z,102284.81
2023-05-20T01:03:10.509Z,102286.75
2023-05-20T01:05:39.162Z,102281.03
2023-05-20T01:08:08.167Z,102279.78
2023-05-20T01:10:39.576Z,102281.88
2023-05-20T01:13:11.199Z,102278.66
2023-05-20T01:15:40.932Z,102280.88
2023-05-20T01:18:10.973Z,102270.44
2023-05-20T01:20:39.677Z,102275.25
2023-05-20T01:23:06.762Z,102274.69
2023-05-20T01:25:33.848Z,102268.97
2023-05-20T01:28:01.318Z,102266.13
2023-05-20T01:30:44.586Z,102266.41
2023-05-20T01:33:13.736Z,102263.88
2023-05-20T01:35:42.314Z,102264.41
2023-05-20T01:38:09.597Z,102254.63
2023-05-20T01:40:36.923Z,102247.00
2023-05-20T01:43:04.749Z,102245.31
2023-05-20T01:45:31.959Z,102244.34
2023-05-20T01:47:59.138Z,102237.78
2023-05-20T01:50:26.904Z,102235.16
2023-05-20T01:52:53.966Z,102238.31
2023-05-20T01:55:20.968Z,102242.41
2023-05-20T01:57:47.847Z,102242.81
2023-05-20T02:00:15.494Z,102242.25
2023-05-20T02:02:42.556Z,102238.88
2023-05-20T02:05:10.212Z,102240.13
2023-05-20T02:07:37.103Z,102239.16
2023-05-20T02:10:04.614Z,102244.56
2023-05-20T02:12:31.557Z,102247.59
2023-05-20T02:14:58.463Z,102241.47
2023-05-20T02:17:25.453Z,102244.38
2023-05-20T02:19:53.012Z,102241.63
2023-05-20T02:22:19.951Z,102241.16
2023-05-20T02:24:46.987Z,102238.88
2023-05-20T02:27:13.983Z,102231.50
2023-05-20T02:29:40.985Z,102227.06
2023-05-20T02:32:07.927Z,102224.66
2023-05-20T02:34:34.814Z,102223.13
2023-05-20T02:37:01.727Z,102225.06
2023-05-20T02:39:29.023Z,102224.59
2023-05-20T02:41:56.642Z,102225.81
2023-05-20T02:44:23.723Z,102222.34
2023-05-20T02:46:50.844Z,102223.75
2023-05-20T02:49:17.719Z,102231.78
2023-05-20T02:51:44.729Z,102229.03
2023-05-20T02:54:11.816Z,102213.97
2023-05-20T02:56:38.913Z,102221.78
2023-05-20T02:59:07.464Z,102221.09
2023-05-20T03:01:35.837Z,102225.53
2023-05-20T03:04:03.925Z,102224.09
2023-05-20T03:06:32.186Z,102220.41
2023-05-20T03:09:00.466Z,102224.84
2023-05-20T03:11:27.354Z,102225.22
2023-05-20T03:13:54.353Z,102228.06
2023-05-20T03:16:21.357Z,102228.34
2023-05-20T03:18:48.665Z,102225.97
2023-05-20T03:21:15.811Z,102235.44
2023-05-20T03:23:42.685Z,102232.34
2023-05-20T03:26:09.569Z,102222.75
2023-05-20T03:28:36.551Z,102222.06
2023-05-20T03:31:03.609Z,102221.09
2023-05-20T03:33:31.717Z,102218.47
2023-05-20T03:35:58.751Z,102222.06
2023-05-20T03:38:25.922Z,102221.31
2023-05-20T03:40:52.782Z,102218.22
2023-05-20T03:43:19.681Z,102223.50
2023-05-20T03:45:46.552Z,102215.59
2023-05-20T03:48:13.499Z,102224.31
2023-05-20T03:50:40.407Z,102217.38
2023-05-20T03:53:07.307Z,102228.53
2023-05-20T03:55:35.147Z,102220.00
2023-05-20T03:58:02.180Z,102222.66
2023-05-20T04:00:31.749Z,102221.22
2023-05-20T04:02:59.242Z,102225.44
2023-05-20T04:05:26.234Z,102222.66
2023-05-20T04:07:53.090Z,102230.06
2023-05-20T04:10:21.192Z,102218.31
2023-05-20T04:12:48.138Z,102215.44
2023-05-20T04:15:15.504Z,102211.59
2023-05-20T04:17:43.060Z,102213.13
2023-05-20T04:20:11.587Z,102211.34
2023-05-20T04:22:40.026Z,102217.91
2023-05-20T04:25:07.422Z,102212.53
2023-05-20T04:27:34.480Z,102214.31
2023-05-20T04:30:02.953Z,102211.69
2023-05-20T04:32:30.552Z,102221.97
2023-05-20T04:34:57.729Z,102226.75
2023-05-20T04:37:25.525Z,102225.22
2023-05-20T04:39:52.917Z,102218.84
2023-05-20T04:42:21.795Z,102220.91
2023-05-20T04:44:49.224Z,102215.38
2023-05-20T04:47:16.152Z,102223.50
2023-05-20T04:49:43.207Z,102215.59
2023-05-20T04:52:10.223Z,102216.44
2023-05-20T04:54:37.216Z,102217.38
2023-05-20T04:57:04.361Z,102216.94
2023-05-20T04:59:31.234Z,102224.72
2023-05-20T05:01:58.291Z,102212.22
2023-05-20T05:04:25.363Z,102218.47
2023-05-20T05:06:52.368Z,102219.19
2023-05-20T05:09:19.486Z,102225.06
2023-05-20T05:11:46.386Z,102216.53
2023-05-20T05:14:13.343Z,102214.53
2023-05-20T05:16:40.298Z,102218.59
2023-05-20T05:19:07.635Z,102220.41
2023-05-20T05:21:34.692Z,102216.09
2023-05-20T05:24:01.567Z,102216.09
2023-05-20T05:26:28.483Z,102219.19
2023-05-20T05:28:55.445Z,102211.28
2023-05-20T05:31:22.542Z,102218.34
2023-05-20T05:33:49.540Z,102209.72
2023-05-20T05:36:17.275Z,102214.28
2023-05-20T05:38:44.793Z,102204.97
2023-05-20T05:41:11.835Z,102213.44
2023-05-20T05:43:38.717Z,102210.16
2023-05-20T05:46:11.021Z,102224.78
2023-05-20T05:48:37.999Z,102209.53
2023-05-20T05:51:05.349Z,102213.22
2023-05-20T05:53:32.300Z,102213.09
2023-05-20T05:56:07.811Z,102212.44
2023-05-20T05:58:34.737Z,102218.44
2023-05-20T06:01:02.344Z,102214.84
2023-05-20T06:03:30.495Z,102219.16
2023-05-20T06:05:57.755Z,102218.75
2023-05-20T06:08:24.668Z,102218.88
2023-05-20T06:10:51.579Z,102227.69
2023-05-20T06:13:18.978Z,102229.38
2023-05-20T06:15:46.670Z,102222.41
2023-05-20T06:18:13.765Z,102221.56
2023-05-20T06:20:41.349Z,102227.69
2023-05-20T06:23:08.245Z,102224.34
2023-05-20T06:25:35.348Z,102230.44
2023-05-20T06:28:02.441Z,102228.19
2023-05-20T06:30:29.524Z,102218.09
2023-05-20T06:32:56.488Z,102221.06
2023-05-20T06:35:23.465Z,102218.88
2023-05-20T06:37:50.482Z,102214.44
2023-05-20T06:40:17.524Z,102212.03
2023-05-20T06:42:44.547Z,102204.97
2023-05-20T06:45:12.006Z,102208.84
2023-05-20T06:47:39.009Z,102201.31
2023-05-20T06:50:06.573Z,102205.63
2023-05-20T06:52:33.433Z,102209.09
2023-05-20T06:55:00.370Z,102201.75
2023-05-20T06:57:27.387Z,102198.63
2023-05-20T06:59:54.663Z,102202.94
2023-05-20T07:02:22.633Z,102197.13
2023-05-20T07:04:50.159Z,102199.38
2023-05-20T07:07:17.671Z,102204.53
2023-05-20T07:09:44.655Z,102200.41
2023-05-20T07:12:11.567Z,102194.72
2023-05-20T07:14:38.545Z,102199.88
2023-05-20T07:17:06.193Z,102192.53
2023-05-20T07:19:34.112Z,102192.25
2023-05-20T07:22:01.135Z,102197.03
2023-05-20T07:24:28.089Z,102192.31
2023-05-20T07:26:55.020Z,102201.09
2023-05-20T07:29:21.931Z,102185.84
2023-05-20T07:31:49.133Z,102193.09
2023-05-20T07:34:16.106Z,102189.22
2023-05-20T07:36:44.064Z,102187.28
2023-05-20T07:39:14.344Z,102191.47
2023-05-20T07:41:42.448Z,102191.47
2023-05-20T07:44:11.585Z,102196.56
2023-05-20T07:46:39.327Z,102195.50
2023-05-20T07:49:06.540Z,102200.50
2023-05-20T07:51:33.640Z,102186.84
2023-05-20T07:54:04.106Z,102183.00
2023-05-20T07:56:31.187Z,102184.69
2023-05-20T07:59:00.556Z,102183.09
2023-05-20T08:01:28.208Z,102188.78
2023-05-20T08:03:55.857Z,102184.03
2023-05-20T08:06:34.600Z,102181.78
2023-05-20T08:09:02.943Z,102168.94
2023-05-20T08:11:30.128Z,102164.84
2023-05-20T08:13:57.286Z,102170.19
2023-05-20T08:16:27.459Z,102161.34
2023-05-20T08:18:54.717Z,102153.16
2023-05-20T08:21:22.065Z,102156.97
2023-05-20T08:23:50.130Z,102161.41
2023-05-20T08:26:22.699Z,102152.00
2023-05-20T08:28:49.935Z,102148.25
2023-05-20T08:31:18.406Z,102154.19
2023-05-20T08:33:45.630Z,102144.94
2023-05-20T08:36:12.864Z,102148.72
2023-05-20T08:38:39.990Z,102137.94
2023-05-20T08:41:07.176Z,102140.38
2023-05-20T08:43:34.937Z,102148.50
2023-05-20T08:48:52.577Z,102139.53
2023-05-20T08:51:23.752Z,102143.66
2023-05-20T08:53:51.670Z,102140.13
2023-05-20T08:56:30.827Z,102146.31
2023-05-20T08:58:58.385Z,102133.00
2023-05-20T09:01:27.234Z,102136.47
2023-05-20T09:03:54.553Z,102137.69
2023-05-20T09:06:26.805Z,102127.44
2023-05-20T09:08:53.945Z,102116.94
2023-05-20T09:11:22.724Z,102134.78
2023-05-20T09:13:51.115Z,102129.31
2023-05-20T09:16:18.601Z,102126.63
2023-05-20T09:18:46.788Z,102122.47
2023-05-20T09:21:14.011Z,102121.13
2023-05-20T09:23:41.170Z,102110.97
2023-05-20T09:26:08.585Z,102112.97
2023-05-20T09:28:38.700Z,102105.66
2023-05-20T09:31:06.994Z,102111.47
2023-05-20T09:33:36.062Z,102100.34
2023-05-20T09:36:09.278Z,102097.50
2023-05-20T09:38:40.051Z,102101.69
2023-05-20T09:41:11.919Z,102098.34
2023-05-20T09:43:41.074Z,102095.88
2023-05-20T09:46:09.590Z,102095.25
2023-05-20T09:48:38.036Z,102091.56
2023-05-20T09:51:07.205Z,102083.88
2023-05-20T09:53:34.653Z,102085.56
2023-05-20T09:56:09.913Z,102088.88
2023-05-20T09:58:37.535Z,102087.88
2023-05-20T10:01:06.206Z,102076.53
2023-05-20T10:03:33.847Z,102069.84
2023-05-20T10:06:10.426Z,102075.03
2023-05-20T10:08:49.367Z,102071.16
2023-05-20T10:11:33.776Z,102057.50
2023-05-20T10:14:22.826Z,102064.59
2023-05-20T10:16:53.347Z,102064.91
2023-05-20T10:19:31.396Z,102053.03
2023-05-20T10:22:03.472Z,102062.28
2023-05-20T10:24:34.162Z,102051.28
2023-05-20T10:27:04.275Z,102047.59
2023-05-20T10:29:43.646Z,102057.78
2023-05-20T10:32:10.947Z,102039.56
2023-05-20T10:34:48.440Z,102044.19
2023-05-20T10:37:26.819Z,102053.50
2023-05-20T10:40:05.978Z,102058.97
2023-05-20T10:42:33.534Z,102053.34
2023-05-20T10:45:01.901Z,102046.34
2023-05-20T10:47:29.163Z,102046.38
2023-05-20T10:49:56.535Z,102041.94
2023-05-20T10:52:24.970Z,102040.97
2023-05-20T10:54:56.869Z,102041.63
2023-05-20T10:57:24.994Z,102033.78
2023-05-20T10:59:52.435Z,102032.69
2023-05-20T11:02:23.547Z,102036.19
2023-05-20T11:04:52.814Z,102025.75
2023-05-20T11:07:29.902Z,102026.06
2023-05-20T11:09:58.171Z,102021.53
2023-05-20T11:12:27.034Z,102025.41
2023-05-20T11:14:55.939Z,102022.25
2023-05-20T11:17:23.322Z,102022.66
2023-05-20T11:19:51.329Z,102011.41
2023-05-20T11:22:18.487Z,102015.09
2023-05-20T11:24:45.675Z,102013.91
2023-05-20T11:27:13.010Z,102010.19
2023-05-20T11:29:41.104Z,102019.69
2023-05-20T11:32:08.773Z,102014.63
2023-05-20T11:34:37.642Z,102022.88
2023-05-20T11:37:10.044Z,102018.41
2023-05-20T11:39:38.577Z,102015.13
2023-05-20T11:42:07.029Z,102009.69
2023-05-20T11:44:34.674Z,102003.84
2023-05-20T11:47:03.793Z,102007.94
2023-05-20T11:49:39.743Z,101997.88
2023-05-20T11:52:10.021Z,101995.47
2023-05-20T11:54:37.211Z,101993.75
2023-05-20T11:57:06.852Z,101982.69
2023-05-20T11:59:35.305Z,101983.41
2023-05-20T12:02:02.516Z,101985.81
2023-05-20T12:04:29.742Z,101973.47
2023-05-20T12:06:56.892Z,101982.97
2023-05-20T12:09:24.050Z,101974.69
2023-05-20T12:11:51.346Z,101966.66
2023-05-20T12:14:18.562Z,101971.16
2023-05-20T12:16:45.880Z,101957.25
2023-05-20T12:19:13.093Z,101976.69
2023-05-20T12:21:40.273Z,101957.72
2023-05-20T12:24:09.038Z,101951.53
2023-05-20T12:26:36.470Z,101945.56
2023-05-20T12:29:03.683Z,101947.75
2023-05-20T12:31:33.101Z,101952.09
2023-05-20T12:34:01.912Z,101942.78
2023-05-20T12:36:29.372Z,101947.69
2023-05-20T12:38:56.665Z,101947.59
2023-05-20T12:41:23.989Z,101946.38
2023-05-20T12:43:51.133Z,101950.44
2023-05-20T12:46:19.162Z,101941.59
2023-05-20T12:48:46.358Z,101941.13
2023-05-20T12:51:13.736Z,101944.34
2023-05-20T12:53:41.120Z,101945.91
2023-05-20T12:56:08.382Z,101941.88
2023-05-20T12:58:35.629Z,101947.75
2023-05-20T13:01:02.932Z,101943.47
2023-05-20T13:03:30.202Z,101941.06
2023-05-20T13:05:57.378Z,101944.09
2023-05-20T13:08:25.495Z,101945.75
2023-05-20T13:10:53.823Z,101950.72
2023-05-20T13:13:22.233Z,101948.78
2023-05-20T13:15:50.088Z,101932.81
2023-05-20T13:18:17.746Z,101932.91
2023-05-20T13:20:44.843Z,101947.13
2023-05-20T13:23:12.449Z,101937.88
2023-05-20T13:25:39.676Z,101943.44
2023-05-20T13:28:07.002Z,101944.44
2023-05-20T13:30:45.765Z,101939.38
2023-05-20T13:33:12.985Z,101925.66
2023-05-20T13:35:40.392Z,101924.47
2023-05-20T13:38:07.822Z,101928.03
2023-05-20T13:40:35.280Z,101930.59
2023-05-20T13:43:02.627Z,101920.81
2023-05-20T13:45:30.180Z,101914.28
2023-05-20T13:47:57.367Z,101911.47
2023-05-20T13:50:24.585Z,101912.00
2023-05-20T13:52:52.137Z,101907.66
2023-05-20T13:55:19.403Z,101911.47
2023-05-20T13:57:46.830Z,101920.09
2023-05-20T14:00:15.140Z,101910.06
2023-05-20T14:02:42.405Z,101909.28
2023-05-20T14:05:10.155Z,101907.00
2023-05-20T14:07:37.379Z,101907.84
2023-05-20T14:10:05.276Z,101900.72
2023-05-20T14:12:32.459Z,101905.13
2023-05-20T14:14:59.643Z,101895.69
2023-05-20T14:17:26.852Z,101893.56
2023-05-20T14:19:54.182Z,101896.06
2023-05-20T14:22:23.781Z,101887.84
2023-05-20T14:24:51.137Z,101887.31
2023-05-20T14:27:18.458Z,101872.38
2023-05-20T14:29:45.759Z,101883.69
2023-05-20T14:32:14.195Z,101876.41
2023-05-20T14:34:41.752Z,101878.00
2023-05-20T14:37:10.430Z,101884.34
2023-05-20T14:39:37.717Z,101873.84
2023-05-20T14:42:05.729Z,101870.34
2023-05-20T14:44:33.268Z,101875.09
2023-05-20T14:47:00.993Z,101859.34
2023-05-20T14:49:28.293Z,101858.41
2023-05-20T14:51:56.204Z,101858.50
2023-05-20T14:54:25.653Z,101869.72
2023-05-20T14:56:53.125Z,101870.16
2023-05-20T14:59:20.385Z,101856.22
2023-05-20T15:01:47.659Z,101854.25
2023-05-20T15:04:14.873Z,101860.81
2023-05-20T15:06:42.209Z,101855.84
2023-05-20T15:09:09.582Z,101854.00
2023-05-20T15:11:36.912Z,101858.75
2023-05-20T15:14:04.229Z,101837.63
2023-05-20T15:16:31.705Z,101854.19
2023-05-20T15:18:59.000Z,101855.50
2023-05-20T15:21:26.436Z,101863.03
2023-05-20T15:23:53.964Z,101852.34
2023-05-20T15:26:22.123Z,101853.31
2023-05-20T15:28:49.276Z,101854.47
2023-05-20T15:31:16.456Z,101839.69
2023-05-20T15:33:43.804Z,101844.38
2023-05-20T15:36:19.865Z,101834.34
2023-05-20T15:38:47.157Z,101835.03
2023-05-20T15:41:14.965Z,101823.22
2023-05-20T15:43:43.161Z,101826.66
2023-05-20T15:46:12.056Z,101831.84
2023-05-20T15:48:39.477Z,101833.25
2023-05-20T15:51:06.962Z,101833.56
2023-05-20T15:53:34.480Z,101820.84
2023-05-20T15:56:17.644Z,101827.34
2023-05-20T15:58:45.112Z,101827.19
2023-05-20T16:01:12.434Z,101820.06
2023-05-20T16:03:40.353Z,101825.63
2023-05-20T16:06:07.905Z,101828.81
2023-05-20T16:08:36.723Z,101826.47
2023-05-20T16:11:05.619Z,101813.66
2023-05-20T16:13:32.907Z,101820.97
2023-05-20T16:16:00.421Z,101813.63
2023-05-20T16:18:30.118Z,101804.59
2023-05-20T16:20:58.583Z,101805.75
2023-05-20T16:23:25.947Z,101793.56
2023-05-20T16:25:53.129Z,101807.88
2023-05-20T16:28:24.096Z,101797.03
2023-05-20T16:30:51.816Z,101796.41
2023-05-20T16:33:19.121Z,101792.47
2023-05-20T16:35:46.575Z,101793.66
2023-05-20T16:38:15.359Z,101801.88
2023-05-20T16:40:42.674Z,101806.00
2023-05-20T16:43:09.826Z,101802.94
2023-05-20T16:45:37.093Z,101798.03
2023-05-20T16:48:04.839Z,101793.53
2023-05-20T16:50:32.562Z,101798.28
2023-05-20T16:53:00.344Z,101802.22
2023-05-20T16:55:27.485Z,101795.69
2023-05-20T16:57:55.000Z,101798.72
2023-05-20T17:00:22.262Z,101805.28
2023-05-20T17:02:49.673Z,101794.44
2023-05-20T17:05:17.209Z,101799.53
2023-05-20T17:07:44.624Z,101793.81
2023-05-20T17:10:12.007Z,101800.44
2023-05-20T17:12:39.260Z,101808.63
2023-05-20T17:15:07.465Z,101797.31
2023-05-20T17:17:34.742Z,101803.09
2023-05-20T17:20:02.058Z,101797.19
2023-05-20T17:22:29.400Z,101793.69
2023-05-20T17:24:56.702Z,101798.03
2023-05-20T17:27:24.020Z,101788.56
2023-05-20T17:29:51.183Z,101793.25
2023-05-20T17:32:18.347Z,101793.66
2023-05-20T17:34:45.621Z,101796.22
2023-05-20T17:37:12.970Z,101801.44
2023-05-20T17:39:42.537Z,101797.22
2023-05-20T17:42:11.002Z,101798.81
2023-05-20T17:44:38.228Z,101793.28
2023-05-20T17:47:06.202Z,101798.41
2023-05-20T17:49:33.349Z,101799.06
2023-05-20T17:52:00.957Z,101800.06
2023-05-20T17:54:28.263Z,101793.34
2023-05-20T17:56:55.512Z,101804.22
2023-05-20T17:59:22.859Z,101806.50
2023-05-20T18:01:50.201Z,101812.03
2023-05-20T18:04:18.089Z,101818.94
2023-05-20T18:06:45.639Z,101811.31
2023-05-20T18:09:12.942Z,101820.34
2023-05-20T18:11:40.348Z,101818.88
2023-05-20T18:14:07.590Z,101815.72
2023-05-20T18:16:35.296Z,101814.28
2023-05-20T18:19:03.462Z,101806.63
2023-05-20T18:21:30.968Z,101819.50
2023-05-20T18:23:58.152Z,101824.00
2023-05-20T18:26:25.432Z,101814.53
2023-05-20T18:28:52.541Z,101833.22
2023-05-20T18:31:19.844Z,101826.13
2023-05-20T18:33:47.190Z,101828.97
2023-05-20T18:36:14.391Z,101836.34
2023-05-20T18:38:42.016Z,101830.16
2023-05-20T18:41:09.570Z,101851.50
2023-05-20T18:43:37.122Z,101839.72
2023-05-20T18:46:04.693Z,101853.44
2023-05-20T18:48:31.916Z,101850.25
2023-05-20T18:50:59.123Z,101857.97
2023-05-20T18:53:26.534Z,101854.22
2023-05-20T18:55:53.818Z,101862.72
2023-05-20T18:58:22.040Z,101858.94
2023-05-20T19:00:49.373Z,101857.44
2023-05-20T19:03:17.437Z,101855.50
2023-05-20T19:05:44.566Z,101857.00
2023-05-20T19:08:11.744Z,101859.16
2023-05-20T19:10:39.036Z,101854.03
2023-05-20T19:13:06.378Z,101864.84
2023-05-20T19:15:34.426Z,101873.56
2023-05-20T19:18:01.806Z,101868.59
2023-05-20T19:20:29.124Z,101876.59
2023-05-20T19:22:56.454Z,101866.78
2023-05-20T19:25:23.619Z,101856.03
2023-05-20T19:27:50.904Z,101863.91
2023-05-20T19:30:18.116Z,101867.56
2023-05-20T19:32:45.263Z,101869.94
2023-05-20T19:35:12.846Z,101872.28
2023-05-20T19:37:40.004Z,101865.97
2023-05-20T19:40:08.489Z,101868.69
2023-05-20T19:42:35.892Z,101862.06
2023-05-20T19:45:03.035Z,101864.94
2023-05-20T19:47:30.401Z,101870.59
2023-05-20T19:49:57.994Z,101861.16
2023-05-20T19:52:25.164Z,101857.78
2023-05-20T19:54:52.327Z,101857.16
2023-05-20T19:57:19.561Z,101865.13
2023-05-20T19:59:47.255Z,101864.47
2023-05-20T20:02:15.321Z,101866.81
2023-05-20T20:04:42.643Z,101869.84
2023-05-20T20:07:10.023Z,101866.66
2023-05-20T20:09:37.275Z,101873.00
2023-05-20T20:12:05.757Z,101875.34
2023-05-20T20:14:33.415Z,101874.53
2023-05-20T20:17:00.691Z,101880.84
2023-05-20T20:19:28.950Z,101871.53
2023-05-20T20:21:57.115Z,101872.53
2023-05-20T20:24:24.737Z,101872.69
2023-05-20T20:26:54.679Z,101871.56
2023-05-20T20:29:22.991Z,101877.53
2023-05-20T20:31:50.347Z,101878.25
2023-05-20T20:34:17.687Z,101884.06
2023-05-20T20:36:46.069Z,101881.41
2023-05-20T20:39:19.492Z,101864.31
2023-05-20T20:41:47.955Z,101871.78
2023-05-20T20:44:17.546Z,101882.94
2023-05-20T20:46:45.491Z,101884.44
2023-05-20T20:49:12.625Z,101874.78
2023-05-20T20:51:40.714Z,101881.59
2023-05-20T20:54:08.441Z,101891.41
2023-05-20T20:56:37.494Z,101876.94
2023-05-20T20:59:04.897Z,101878.28
2023-05-20T21:01:36.614Z,101885.06
2023-05-20T21:04:05.714Z,101884.72
2023-05-20T21:06:33.069Z,101888.56
2023-05-20T21:09:02.565Z,101895.34
2023-05-20T21:11:29.888Z,101892.34
2023-05-20T21:13:57.162Z,101899.66
2023-05-20T21:16:24.384Z,101897.34
2023-05-20T21:18:51.644Z,101889.84
2023-05-20T21:21:21.946Z,101884.38
2023-05-20T21:23:51.357Z,101894.16
2023-05-20T21:26:18.636Z,101893.63
2023-05-20T21:28:45.758Z,101893.97
2023-05-20T21:31:13.000Z,101891.63
2023-05-20T21:33:40.223Z,101886.63
2023-05-20T21:36:07.542Z,101891.09
2023-05-20T21:38:34.803Z,101884.59
2023-05-20T21:41:02.154Z,101891.09
2023-05-20T21:43:29.636Z,101887.25
2023-05-20T21:45:57.114Z,101882.91
2023-05-20T21:48:24.356Z,101880.91
2023-05-20T21:50:51.552Z,101886.91
2023-05-20T21:53:18.809Z,101889.06
2023-05-20T21:55:45.977Z,101883.06
2023-05-20T21:58:13.336Z,101875.44
2023-05-20T22:00:41.397Z,101883.56
2023-05-20T22:03:08.693Z,101876.09
2023-05-20T22:05:36.080Z,101869.09
2023-05-20T22:08:03.482Z,101876.22
2023-05-20T22:10:34.139Z,101877.06
2023-05-20T22:13:02.569Z,101879.72
2023-05-20T22:15:29.737Z,101872.75
2023-05-20T22:17:56.880Z,101869.44
2023-05-20T22:20:24.902Z,101870.91
2023-05-20T22:22:52.242Z,101872.88
2023-05-20T22:25:19.572Z,101874.78
2023-05-20T22:27:46.742Z,101873.59
2023-05-20T22:30:18.440Z,101881.19
2023-05-20T22:32:46.056Z,101878.03
2023-05-20T22:35:14.161Z,101871.53
2023-05-20T22:37:41.336Z,101866.84
2023-05-20T22:40:09.857Z,101864.53
2023-05-20T22:42:36.979Z,101874.16
2023-05-20T22:45:04.761Z,101855.88
2023-05-20T22:47:31.902Z,101861.19
2023-05-20T22:50:02.824Z,101868.16
2023-05-20T22:52:30.328Z,101862.00
2023-05-20T22:54:57.802Z,101857.81
2023-05-20T22:57:25.785Z,101853.50
2023-05-20T22:59:54.429Z,101850.19
2023-05-20T23:02:23.591Z,101846.44
2023-05-20T23:04:51.572Z,101840.56
2023-05-20T23:07:19.948Z,101831.63
2023-05-20T23:09:49.153Z,101833.91
2023-05-20T23:12:16.838Z,101826.66
2023-05-20T23:14:44.390Z,101833.78
2023-05-20T23:17:11.676Z,101828.63
2023-05-20T23:19:39.247Z,101822.63
2023-05-20T23:22:06.883Z,101816.81
2023-05-20T23:24:34.235Z,101822.72
2023-05-20T23:27:01.599Z,101815.25
2023-05-20T23:29:29.099Z,101822.69
2023-05-20T23:31:56.486Z,101818.38
2023-05-20T23:34:23.866Z,101818.69
2023-05-20T23:36:53.436Z,101818.50
2023-05-20T23:39:21.337Z,101814.38
2023-05-20T23:41:48.632Z,101819.28
2023-05-20T23:44:16.385Z,101812.75
2023-05-20T23:46:45.228Z,101813.81
2023-05-20T23:49:13.138Z,101803.69
2023-05-20T23:51:40.386Z,101810.41
2023-05-20T23:54:07.845Z,101805.44
2023-05-20T23:56:35.380Z,101808.50
2023-05-20T23:59:02.748Z,101806.03
